Bookmark and Share
Track history (hours):
 

Gaz Venture

Last reported at 2014-Apr-24 21:11 UTC. Time now 2014-Apr-24 22:03 UTC.
Position N 35°49' E 014°52'.

Length 120 m; draft 5.6 m.

Type: Ship. MMSI: 356141000.

NotesDate/timePositionNaut miles runAvg speedWind from/ knotsBaromVisibWave heightAir tempDewpointWater temp
2014-Apr-24 21:11N 35°49' E 014°52'0 0.0
2014-Apr-24 17:32N 35°49' E 014°52'0 0.0
2014-Apr-24 15:17N 35°49' E 014°52'0 0.0
2014-Apr-24 14:26N 35°49' E 014°52'0 0.0
2014-Apr-24 13:32N 35°49' E 014°52'7 7.5
2014-Apr-24 12:33N 35°49' E 014°43'5 5.3
2014-Apr-24 11:31N 35°49' E 014°36'0 0.0
2014-Apr-24 10:31N 35°49' E 014°36'0 0.0
2014-Apr-24 09:31N 35°49' E 014°36'1 0.7
2014-Apr-24 08:32N 35°49' E 014°37'13 0.3
2014-Apr-22 16:20N 35°49' E 014°53'0 0.0
2014-Apr-22 15:32N 35°49' E 014°53'0 0.0
2014-Apr-22 13:32N 35°49' E 014°53'0 0.0
2014-Apr-22 09:32N 35°49' E 014°53'0 0.0
2014-Apr-22 08:32N 35°49' E 014°53'0 0.0
2014-Apr-22 07:29N 35°49' E 014°53'0 0.0
2014-Apr-22 05:29N 35°49' E 014°53'0 0.0
2014-Apr-22 04:29N 35°49' E 014°53'0 0.0
2014-Apr-22 03:32N 35°49' E 014°53'0 0.0
2014-Apr-22 02:32N 35°49' E 014°53'0 0.1
2014-Apr-22 01:32N 35°49' E 014°53'0 0.0
2014-Apr-22 00:32N 35°49' E 014°53'0 0.0
2014-Apr-21 23:32N 35°49' E 014°53'0 0.1
2014-Apr-21 22:32N 35°49' E 014°53'0 0.1
2014-Apr-21 21:32N 35°49' E 014°53'0 0.0
2014-Apr-21 20:32N 35°49' E 014°53'0 0.0
2014-Apr-21 19:32N 35°49' E 014°53'0 0.0
2014-Apr-21 18:32N 35°49' E 014°53'0 0.0
2014-Apr-21 17:32N 35°49' E 014°53'0 0.0
2014-Apr-21 16:32N 35°49' E 014°53'0 0.0
2014-Apr-21 15:32N 35°49' E 014°53'0 0.0
2014-Apr-21 14:32N 35°49' E 014°53'0 0.0
2014-Apr-21 13:32N 35°49' E 014°53'0 0.0
2014-Apr-21 12:32N 35°49' E 014°53'0 0.0
2014-Apr-21 11:32N 35°49' E 014°53'0 0.0
2014-Apr-21 10:32N 35°49' E 014°53'0 0.0
2014-Apr-21 09:32N 35°49' E 014°53'0 0.0
2014-Apr-21 08:23N 35°49' E 014°53'0 0.0
2014-Apr-21 06:23N 35°49' E 014°53'0 0.0
2014-Apr-20 23:26N 35°49' E 014°53'0 0.0
2014-Apr-20 21:32N 35°49' E 014°53'0 0.0
2014-Apr-20 20:32N 35°49' E 014°53'0 0.0
2014-Apr-20 19:23N 35°49' E 014°53'0 0.1
2014-Apr-20 18:26N 35°49' E 014°53'0 0.0
2014-Apr-20 17:23N 35°49' E 014°53'0 0.0
2014-Apr-20 16:32N 35°49' E 014°53'0 0.1
2014-Apr-20 15:32N 35°49' E 014°53'0 0.0
2014-Apr-20 14:05N 35°49' E 014°53'0 0.0
2014-Apr-20 13:32N 35°49' E 014°53'0 0.0
2014-Apr-20 12:32N 35°49' E 014°53'10 0.9
2014-Apr-20 01:28N 35°55' E 014°44'1011.5
2014-Apr-20 00:34N 36°04' E 014°36'1414.3
2014-Apr-19 23:33N 36°14' E 014°24'1514.9
2014-Apr-19 22:34N 36°20' E 014°07'1515.3
2014-Apr-19 21:34N 36°26' E 013°49'1615.6
2014-Apr-19 20:33N 36°32' E 013°31'1515.5
2014-Apr-19 19:33N 36°38' E 013°14'1515.1
2014-Apr-19 18:34N 36°44' E 012°56'3015.0
2014-Apr-19 16:32N 36°56' E 012°22'1815.2
2014-Apr-19 15:21N 37°04' E 012°01'1215.1
2014-Apr-19 14:33N 37°09' E 011°47'1515.4
2014-Apr-19 13:33N 37°15' E 011°30'3014.9
2014-Apr-19 11:34N 37°22' E 010°53'1514.8
2014-Apr-19 10:34N 37°11' E 010°41'1615.6
2014-Apr-19 09:34N 36°57' E 010°31'15 0.3
2014-Apr-17 08:22N 37°10' E 010°40'12213.8
2014-Apr-16 23:33N 38°27' E 008°39'22213.7
2014-Apr-16 07:19N 41°03' E 005°15'6114.8
2014-Apr-16 03:11N 42°04' E 005°08'915.1
2014-Apr-16 02:33N 42°13' E 005°07'1515.0
2014-Apr-16 01:33N 42°28' E 005°06'1615.7
2014-Apr-16 00:34N 42°44' E 005°04'1514.6
2014-Apr-15 23:33N 42°58' E 005°02'1414.1
2014-Apr-15 22:33N 43°12' E 005°01'1211.9
2014-Apr-15 21:33N 43°24' E 004°59'0 0.3
2014-Apr-15 20:33N 43°24' E 004°60'0 0.0
2014-Apr-15 19:33N 43°24' E 004°60'0 0.0
2014-Apr-15 18:33N 43°24' E 004°60'0 0.0
2014-Apr-15 17:33N 43°24' E 004°60'0 0.0
2014-Apr-15 16:33N 43°24' E 004°60'0 0.0
2014-Apr-15 15:33N 43°24' E 004°60'0 0.0
2014-Apr-15 14:33N 43°24' E 004°60'0 0.0
2014-Apr-15 12:34N 43°24' E 004°60'0 0.0
2014-Apr-15 11:31N 43°24' E 004°60'0 0.0
2014-Apr-15 10:34N 43°24' E 004°60'0 0.0
2014-Apr-15 09:34N 43°24' E 004°60'0 0.0
2014-Apr-15 08:34N 43°24' E 004°60'0 0.0
2014-Apr-15 07:34N 43°24' E 004°60'0 0.0
2014-Apr-15 06:34N 43°24' E 004°60'0 0.0
2014-Apr-15 05:34N 43°24' E 004°60'0 0.0
2014-Apr-15 03:31N 43°24' E 004°60'0 0.0
2014-Apr-15 02:34N 43°24' E 004°60'0 0.1
2014-Apr-15 01:34N 43°24' E 004°60'2 1.5
2014-Apr-15 00:33N 43°24' E 004°58'0 0.0
2014-Apr-14 23:33N 43°24' E 004°58'0 0.0
2014-Apr-14 22:33N 43°24' E 004°58'0 0.0
2014-Apr-14 21:33N 43°24' E 004°58'  

Dump ship's entire track history

sailing weather and tide predictions

Gaz Venture — 3FLQ4 — position and weather